Akron Fulton International Airport
KAKR : rendu visible

Aérodrome :











RETROUVEZ-NOUS SUR...

 
LOGIN :

S'inscrire | Disclaimer

   EN    FR    IT 

 









Légende :    VFR   VFR Marginal   IFR   IFR Intensif   IFR Très Intensif
Visi : 
Plafond : 
>= 8 km
>= 3000ft
5 à 8 km
1000 à 3000 ft
1500m à 5 km
500 à 1000 ft
800 à 1500m
200 à 500 ft
< 800m
< 200 ft
Symboles :   Orages  Brouillard  Fortes neiges  Fortes précipitations  Vent > 20 kt






- Altitude de l'aérodrome : 1067 ft


KAKR - Akron Fulton International

DERNIER METAR :
  • 222254Z AUTO 34004KT 10SM OVC028 02/M04 A3010 RMK AO2 SLP200 T00221044

METARs EXPIRÉS :
  • 222154Z AUTO 33007KT 10SM OVC029 03/M04 A3009 RMK AO2 SLP195 T00281044
  • 222121Z AUTO 34008KT 10SM OVC030 03/M04 A3009 RMK AO2 T00331044
  • 222054Z AUTO 33009KT 10SM OVC029 03/M04 A3008 RMK AO2 SLP192 T00331044 53016
  • 222046Z AUTO 33012KT 10SM OVC029 03/M04 A3008 RMK AO2 T00331039

TAF N/A



MET'MAP, la Météo Aéronautique d'un coup d'oeil ! - Copyright ORBIFLY Décembre 2007 - Disclaimer

ORBIFLY MET'MAP TEAM :

Programmation & Développement : Alexandra Zaïnal
Conception & Développement : Baudouin d'Aumeries
Co-Programmation & Développement : Marc-Olivier Méhu
Soutien technique & logistique : Manuel Goepfert

Contact : metmap@orbifly.com




SOURCES & CREDITS :

   NOAA       Earth
Advisory